< Typhoon 201116 2011 Season Typhoon 201118 >
Typhoon 201117 (NESAT)
General InformationTrack Information on Google MapsDetailed Wind InformationAccess Analytics MapList of All Images || NewsDisaster Info.WeblogTrackbackTyphoon FrontTwiphoonTyphoon Now!Typhoon ImaginationResourceGoogle EarthGE AnimationAtom FeedGeoJSON
Detalied Best Track (Time Zone = UTC)
Year Month Day Hour Lat. Long. Pressure (hPa) Wind (kt) Class Image Chart
2011 9 23 00 12.6 139.2 1006 0 2 Image Chart
2011 9 23 06 12.9 138.7 1004 0 2 Image Chart
2011 9 23 12 13.3 138.3 1004 0 2 Image Chart
2011 9 23 18 13.7 137.6 1004 0 2 Image Chart
2011 9 24 00 14.2 136.5 1000 35 3 Image Chart
2011 9 24 06 14.8 134.9 998 35 3 Image Chart
2011 9 24 12 15.0 133.6 994 40 3 Image Chart
2011 9 24 18 14.5 131.9 990 45 3 Image Chart
2011 9 25 00 14.4 130.6 985 50 4 Image Chart
2011 9 25 06 14.5 129.2 985 50 4 Image Chart
2011 9 25 12 14.6 128.3 980 55 4 Image Chart
2011 9 25 18 14.9 127.0 975 60 4 Image Chart
2011 9 26 00 15.1 126.0 965 70 5 Image Chart
2011 9 26 06 15.4 125.0 965 70 5 Image Chart
2011 9 26 12 15.8 124.0 960 75 5 Image Chart
2011 9 26 18 16.2 122.9 950 80 5 Image Chart
2011 9 27 00 16.3 121.5 960 75 5 Image Chart
2011 9 27 06 16.5 120.2 970 65 5 Image Chart
2011 9 27 12 16.9 119.1 970 65 5 Image Chart
2011 9 27 18 17.2 117.9 970 65 5 Image Chart
2011 9 28 00 17.1 116.6 970 65 5 Image Chart
2011 9 28 06 17.4 115.8 970 65 5 Image Chart
2011 9 28 12 18.2 114.6 970 65 5 Image Chart
2011 9 28 18 18.8 113.4 970 65 5 Image Chart
2011 9 29 00 19.7 112.2 970 65 5 Image Chart
2011 9 29 06 19.9 110.8 970 65 5 Image Chart
2011 9 29 12 20.2 109.8 970 65 5 Image Chart
2011 9 29 18 20.6 108.9 980 55 4 Image Chart
2011 9 30 00 20.8 107.8 985 50 4 Image Chart
2011 9 30 06 20.9 106.8 992 45 3 Image Chart
2011 9 30 12 21.1 106.5 998 35 3 Image Chart
2011 9 30 18 21.5 106.2 1004 0 2 Image Chart
Japan Meteorological Agency Best Track Data | Correction Date : 2011-11-07
< Typhoon 201116 2011 Season Typhoon 201118 >

Help